sensor_id;sensor_type;location;lat;lon;timestamp;P1;durP1;ratioP1;P2;durP2;ratioP2
55933;SDS011;41839;41.386;2.082;2023-03-14T00:04:12;968.03;;;780.42;;
55933;SDS011;41839;41.386;2.082;2023-03-14T00:06:37;957.42;;;767.75;;
55933;SDS011;41839;41.386;2.082;2023-03-14T00:09:03;975.38;;;786.60;;
55933;SDS011;41839;41.386;2.082;2023-03-14T00:12:08;962.53;;;774.00;;
55933;SDS011;41839;41.386;2.082;2023-03-14T00:14:34;961.23;;;769.53;;
55933;SDS011;41839;41.386;2.082;2023-03-14T00:16:59;982.88;;;792.78;;
55933;SDS011;41839;41.386;2.082;2023-03-14T00:19:25;964.47;;;772.38;;
55933;SDS011;41839;41.386;2.082;2023-03-14T00:23:40;948.15;;;753.58;;
55933;SDS011;41839;41.386;2.082;2023-03-14T00:28:37;949.38;;;747.60;;
55933;SDS011;41839;41.386;2.082;2023-03-14T00:31:04;964.42;;;763.20;;
55933;SDS011;41839;41.386;2.082;2023-03-14T00:35:57;975.78;;;770.40;;
55933;SDS011;41839;41.386;2.082;2023-03-14T00:38:24;976.00;;;774.92;;
55933;SDS011;41839;41.386;2.082;2023-03-14T00:40:51;983.25;;;790.00;;
55933;SDS011;41839;41.386;2.082;2023-03-14T00:43:17;958.50;;;746.30;;
55933;SDS011;41839;41.386;2.082;2023-03-14T00:45:44;962.65;;;757.50;;
55933;SDS011;41839;41.386;2.082;2023-03-14T00:48:09;972.08;;;761.78;;
55933;SDS011;41839;41.386;2.082;2023-03-14T00:51:15;963.85;;;753.90;;
55933;SDS011;41839;41.386;2.082;2023-03-14T00:53:41;970.80;;;768.78;;
55933;SDS011;41839;41.386;2.082;2023-03-14T00:56:11;973.35;;;752.75;;
55933;SDS011;41839;41.386;2.082;2023-03-14T00:59:12;973.67;;;752.92;;
55933;SDS011;41839;41.386;2.082;2023-03-14T01:01:38;969.92;;;755.95;;
55933;SDS011;41839;41.386;2.082;2023-03-14T01:04:04;972.70;;;758.17;;
55933;SDS011;41839;41.386;2.082;2023-03-14T01:06:30;977.97;;;759.33;;
55933;SDS011;41839;41.386;2.082;2023-03-14T01:08:56;988.95;;;773.58;;
55933;SDS011;41839;41.386;2.082;2023-03-14T01:11:24;984.40;;;766.57;;
55933;SDS011;41839;41.386;2.082;2023-03-14T01:13:51;975.45;;;746.38;;
55933;SDS011;41839;41.386;2.082;2023-03-14T01:16:18;984.80;;;764.00;;
55933;SDS011;41839;41.386;2.082;2023-03-14T01:18:46;972.78;;;740.10;;
55933;SDS011;41839;41.386;2.082;2023-03-14T01:21:31;986.72;;;753.97;;
55933;SDS011;41839;41.386;2.082;2023-03-14T01:23:58;998.95;;;748.80;;
55933;SDS011;41839;41.386;2.082;2023-03-14T01:26:27;1009.85;;;745.90;;
55933;SDS011;41839;41.386;2.082;2023-03-14T01:28:55;1039.00;;;762.58;;
55933;SDS011;41839;41.386;2.082;2023-03-14T01:31:22;1067.95;;;760.25;;
55933;SDS011;41839;41.386;2.082;2023-03-14T01:33:48;1062.50;;;753.08;;
55933;SDS011;41839;41.386;2.082;2023-03-14T01:36:15;1063.45;;;770.88;;
55933;SDS011;41839;41.386;2.082;2023-03-14T01:38:41;1041.78;;;746.88;;
55933;SDS011;41839;41.386;2.082;2023-03-14T01:41:09;1084.40;;;770.13;;
55933;SDS011;41839;41.386;2.082;2023-03-14T01:43:39;1045.05;;;741.88;;
55933;SDS011;41839;41.386;2.082;2023-03-14T01:51:34;1023.97;;;742.63;;
55933;SDS011;41839;41.386;2.082;2023-03-14T01:54:13;1034.13;;;749.33;;
55933;SDS011;41839;41.386;2.082;2023-03-14T01:56:43;1017.55;;;748.75;;
55933;SDS011;41839;41.386;2.082;2023-03-14T01:59:11;1005.10;;;729.50;;
55933;SDS011;41839;41.386;2.082;2023-03-14T02:01:38;1015.63;;;749.90;;
55933;SDS011;41839;41.386;2.082;2023-03-14T02:04:05;1034.22;;;746.97;;
55933;SDS011;41839;41.386;2.082;2023-03-14T02:06:38;1047.55;;;742.63;;
55933;SDS011;41839;41.386;2.082;2023-03-14T02:11:36;1065.22;;;745.83;;
55933;SDS011;41839;41.386;2.082;2023-03-14T02:14:01;1004.42;;;739.03;;
55933;SDS011;41839;41.386;2.082;2023-03-14T02:18:55;997.47;;;714.70;;
55933;SDS011;41839;41.386;2.082;2023-03-14T02:21:26;1014.72;;;714.08;;
55933;SDS011;41839;41.386;2.082;2023-03-14T02:27:07;1017.38;;;722.08;;
55933;SDS011;41839;41.386;2.082;2023-03-14T02:29:42;1024.57;;;724.38;;
55933;SDS011;41839;41.386;2.082;2023-03-14T02:32:14;1023.47;;;729.50;;
55933;SDS011;41839;41.386;2.082;2023-03-14T02:34:42;1034.50;;;729.40;;
55933;SDS011;41839;41.386;2.082;2023-03-14T02:37:10;1090.75;;;749.50;;
55933;SDS011;41839;41.386;2.082;2023-03-14T02:39:41;1027.40;;;725.35;;
55933;SDS011;41839;41.386;2.082;2023-03-14T02:42:14;1024.60;;;734.20;;
55933;SDS011;41839;41.386;2.082;2023-03-14T02:44:59;1010.78;;;740.45;;
55933;SDS011;41839;41.386;2.082;2023-03-14T02:47:51;1005.38;;;718.65;;
55933;SDS011;41839;41.386;2.082;2023-03-14T02:50:25;993.38;;;711.67;;
55933;SDS011;41839;41.386;2.082;2023-03-14T02:52:54;1006.05;;;731.78;;
55933;SDS011;41839;41.386;2.082;2023-03-14T02:55:20;996.15;;;736.20;;
55933;SDS011;41839;41.386;2.082;2023-03-14T02:57:46;990.88;;;748.75;;
55933;SDS011;41839;41.386;2.082;2023-03-14T03:00:11;973.88;;;724.28;;
55933;SDS011;41839;41.386;2.082;2023-03-14T03:02:37;966.05;;;727.65;;
55933;SDS011;41839;41.386;2.082;2023-03-14T03:05:03;1004.85;;;743.25;;
55933;SDS011;41839;41.386;2.082;2023-03-14T03:07:28;963.58;;;718.40;;
55933;SDS011;41839;41.386;2.082;2023-03-14T03:09:54;1024.97;;;780.40;;
55933;SDS011;41839;41.386;2.082;2023-03-14T03:12:19;1024.90;;;767.13;;
55933;SDS011;41839;41.386;2.082;2023-03-14T03:14:45;1013.67;;;770.15;;
55933;SDS011;41839;41.386;2.082;2023-03-14T03:17:10;1008.60;;;765.33;;
55933;SDS011;41839;41.386;2.082;2023-03-14T03:19:35;1013.17;;;770.47;;
55933;SDS011;41839;41.386;2.082;2023-03-14T03:22:01;996.85;;;746.85;;
55933;SDS011;41839;41.386;2.082;2023-03-14T03:24:27;1016.25;;;770.95;;
55933;SDS011;41839;41.386;2.082;2023-03-14T03:26:53;1014.60;;;767.83;;
55933;SDS011;41839;41.386;2.082;2023-03-14T03:29:18;1016.65;;;769.92;;
55933;SDS011;41839;41.386;2.082;2023-03-14T03:31:44;1026.25;;;781.58;;
55933;SDS011;41839;41.386;2.082;2023-03-14T03:34:12;1014.47;;;769.92;;
55933;SDS011;41839;41.386;2.082;2023-03-14T03:36:38;1006.53;;;774.08;;
55933;SDS011;41839;41.386;2.082;2023-03-14T03:39:04;999.22;;;755.05;;
55933;SDS011;41839;41.386;2.082;2023-03-14T03:41:30;995.90;;;753.92;;
55933;SDS011;41839;41.386;2.082;2023-03-14T03:43:56;1008.15;;;761.40;;
55933;SDS011;41839;41.386;2.082;2023-03-14T03:46:22;1004.05;;;770.17;;
55933;SDS011;41839;41.386;2.082;2023-03-14T03:48:48;1009.65;;;749.33;;
55933;SDS011;41839;41.386;2.082;2023-03-14T03:51:14;1001.95;;;754.45;;
55933;SDS011;41839;41.386;2.082;2023-03-14T03:53:41;991.83;;;757.45;;
55933;SDS011;41839;41.386;2.082;2023-03-14T03:56:07;988.85;;;755.63;;
55933;SDS011;41839;41.386;2.082;2023-03-14T03:58:34;985.38;;;757.50;;
55933;SDS011;41839;41.386;2.082;2023-03-14T04:00:59;989.42;;;757.63;;
55933;SDS011;41839;41.386;2.082;2023-03-14T04:03:25;992.90;;;759.83;;
55933;SDS011;41839;41.386;2.082;2023-03-14T04:05:58;991.55;;;756.78;;
55933;SDS011;41839;41.386;2.082;2023-03-14T04:08:24;994.42;;;753.17;;
55933;SDS011;41839;41.386;2.082;2023-03-14T04:10:53;996.60;;;759.40;;
55933;SDS011;41839;41.386;2.082;2023-03-14T04:13:20;991.63;;;748.75;;
55933;SDS011;41839;41.386;2.082;2023-03-14T04:15:45;1005.33;;;763.30;;
55933;SDS011;41839;41.386;2.082;2023-03-14T04:18:11;995.55;;;737.95;;
55933;SDS011;41839;41.386;2.082;2023-03-14T04:20:36;999.38;;;748.55;;
55933;SDS011;41839;41.386;2.082;2023-03-14T04:23:02;987.28;;;732.47;;
55933;SDS011;41839;41.386;2.082;2023-03-14T04:25:27;1001.88;;;742.28;;
55933;SDS011;41839;41.386;2.082;2023-03-14T04:27:53;1001.67;;;735.20;;
55933;SDS011;41839;41.386;2.082;2023-03-14T04:30:18;991.33;;;742.92;;
55933;SDS011;41839;41.386;2.082;2023-03-14T04:32:43;987.10;;;728.83;;
55933;SDS011;41839;41.386;2.082;2023-03-14T04:35:09;985.30;;;747.35;;
55933;SDS011;41839;41.386;2.082;2023-03-14T04:37:34;980.97;;;731.38;;
55933;SDS011;41839;41.386;2.082;2023-03-14T04:40:00;986.72;;;741.38;;
55933;SDS011;41839;41.386;2.082;2023-03-14T04:42:26;995.03;;;747.55;;
55933;SDS011;41839;41.386;2.082;2023-03-14T04:44:51;994.03;;;745.25;;
55933;SDS011;41839;41.386;2.082;2023-03-14T04:47:17;974.15;;;740.22;;
55933;SDS011;41839;41.386;2.082;2023-03-14T04:49:42;993.33;;;737.35;;
55933;SDS011;41839;41.386;2.082;2023-03-14T04:52:08;990.22;;;741.00;;
55933;SDS011;41839;41.386;2.082;2023-03-14T04:54:33;997.60;;;743.35;;
55933;SDS011;41839;41.386;2.082;2023-03-14T04:56:59;988.60;;;728.55;;
55933;SDS011;41839;41.386;2.082;2023-03-14T04:59:25;989.83;;;746.58;;
55933;SDS011;41839;41.386;2.082;2023-03-14T05:01:50;987.83;;;752.97;;
55933;SDS011;41839;41.386;2.082;2023-03-14T05:04:15;971.90;;;729.83;;
55933;SDS011;41839;41.386;2.082;2023-03-14T05:06:41;978.88;;;739.65;;
55933;SDS011;41839;41.386;2.082;2023-03-14T05:09:07;964.92;;;717.95;;
55933;SDS011;41839;41.386;2.082;2023-03-14T05:11:33;969.50;;;734.40;;
55933;SDS011;41839;41.386;2.082;2023-03-14T05:13:58;942.13;;;737.85;;
55933;SDS011;41839;41.386;2.082;2023-03-14T05:16:24;912.05;;;737.47;;
55933;SDS011;41839;41.386;2.082;2023-03-14T05:18:50;869.35;;;731.60;;
55933;SDS011;41839;41.386;2.082;2023-03-14T05:21:15;828.40;;;737.28;;
55933;SDS011;41839;41.386;2.082;2023-03-14T05:23:41;877.88;;;719.83;;
55933;SDS011;41839;41.386;2.082;2023-03-14T05:26:06;888.60;;;715.33;;
55933;SDS011;41839;41.386;2.082;2023-03-14T05:28:32;835.78;;;745.58;;
55933;SDS011;41839;41.386;2.082;2023-03-14T05:30:57;835.30;;;745.60;;
55933;SDS011;41839;41.386;2.082;2023-03-14T05:33:23;819.35;;;730.00;;
55933;SDS011;41839;41.386;2.082;2023-03-14T05:35:48;838.30;;;746.08;;
55933;SDS011;41839;41.386;2.082;2023-03-14T05:38:14;818.70;;;724.78;;
55933;SDS011;41839;41.386;2.082;2023-03-14T05:40:39;829.63;;;713.45;;
55933;SDS011;41839;41.386;2.082;2023-03-14T05:43:05;927.30;;;710.95;;
55933;SDS011;41839;41.386;2.082;2023-03-14T05:45:33;938.00;;;731.38;;
55933;SDS011;41839;41.386;2.082;2023-03-14T05:47:59;839.50;;;724.37;;
55933;SDS011;41839;41.386;2.082;2023-03-14T05:50:25;848.22;;;720.20;;
55933;SDS011;41839;41.386;2.082;2023-03-14T05:52:50;846.38;;;728.95;;
55933;SDS011;41839;41.386;2.082;2023-03-14T05:55:15;832.10;;;734.97;;
55933;SDS011;41839;41.386;2.082;2023-03-14T05:57:41;839.05;;;718.47;;
55933;SDS011;41839;41.386;2.082;2023-03-14T06:00:07;823.53;;;736.47;;
55933;SDS011;41839;41.386;2.082;2023-03-14T06:02:33;806.30;;;719.97;;
55933;SDS011;41839;41.386;2.082;2023-03-14T06:04:58;799.92;;;714.67;;
55933;SDS011;41839;41.386;2.082;2023-03-14T06:07:24;807.92;;;722.95;;
55933;SDS011;41839;41.386;2.082;2023-03-14T06:09:49;802.15;;;710.50;;
55933;SDS011;41839;41.386;2.082;2023-03-14T06:12:15;843.30;;;712.35;;
55933;SDS011;41839;41.386;2.082;2023-03-14T06:14:40;845.67;;;706.38;;
55933;SDS011;41839;41.386;2.082;2023-03-14T06:17:06;802.45;;;712.95;;
55933;SDS011;41839;41.386;2.082;2023-03-14T06:19:31;829.78;;;713.45;;
55933;SDS011;41839;41.386;2.082;2023-03-14T06:21:57;814.80;;;708.75;;
55933;SDS011;41839;41.386;2.082;2023-03-14T06:24:22;797.03;;;712.15;;
55933;SDS011;41839;41.386;2.082;2023-03-14T06:26:47;806.75;;;720.75;;
55933;SDS011;41839;41.386;2.082;2023-03-14T06:29:13;768.78;;;684.13;;
55933;SDS011;41839;41.386;2.082;2023-03-14T06:31:38;812.25;;;724.70;;
55933;SDS011;41839;41.386;2.082;2023-03-14T06:34:05;805.20;;;712.83;;
55933;SDS011;41839;41.386;2.082;2023-03-14T06:36:30;818.22;;;706.78;;
55933;SDS011;41839;41.386;2.082;2023-03-14T06:38:56;814.75;;;725.55;;
55933;SDS011;41839;41.386;2.082;2023-03-14T06:41:21;793.58;;;692.60;;
55933;SDS011;41839;41.386;2.082;2023-03-14T06:43:48;805.13;;;688.33;;
55933;SDS011;41839;41.386;2.082;2023-03-14T06:46:14;790.33;;;676.28;;
55933;SDS011;41839;41.386;2.082;2023-03-14T06:48:40;797.20;;;702.90;;
55933;SDS011;41839;41.386;2.082;2023-03-14T06:51:06;802.05;;;707.45;;
55933;SDS011;41839;41.386;2.082;2023-03-14T06:53:31;798.88;;;711.10;;
55933;SDS011;41839;41.386;2.082;2023-03-14T06:55:57;781.70;;;691.38;;
55933;SDS011;41839;41.386;2.082;2023-03-14T06:58:22;795.08;;;704.25;;
55933;SDS011;41839;41.386;2.082;2023-03-14T07:00:48;796.28;;;698.20;;
55933;SDS011;41839;41.386;2.082;2023-03-14T07:03:14;782.80;;;692.42;;
55933;SDS011;41839;41.386;2.082;2023-03-14T07:05:39;780.72;;;688.38;;
55933;SDS011;41839;41.386;2.082;2023-03-14T07:08:06;784.80;;;698.03;;
55933;SDS011;41839;41.386;2.082;2023-03-14T07:10:32;813.75;;;726.28;;
55933;SDS011;41839;41.386;2.082;2023-03-14T07:12:58;786.28;;;698.95;;
55933;SDS011;41839;41.386;2.082;2023-03-14T07:15:23;789.15;;;702.60;;
55933;SDS011;41839;41.386;2.082;2023-03-14T07:17:49;769.75;;;685.03;;
55933;SDS011;41839;41.386;2.082;2023-03-14T07:20:16;778.38;;;692.70;;
55933;SDS011;41839;41.386;2.082;2023-03-14T07:22:42;764.38;;;680.92;;
55933;SDS011;41839;41.386;2.082;2023-03-14T07:25:07;784.28;;;690.25;;
55933;SDS011;41839;41.386;2.082;2023-03-14T07:27:36;787.10;;;679.22;;
55933;SDS011;41839;41.386;2.082;2023-03-14T07:30:02;804.78;;;682.10;;
55933;SDS011;41839;41.386;2.082;2023-03-14T07:32:28;819.05;;;699.65;;
55933;SDS011;41839;41.386;2.082;2023-03-14T07:34:53;803.78;;;688.58;;
55933;SDS011;41839;41.386;2.082;2023-03-14T07:37:19;784.03;;;673.40;;
55933;SDS011;41839;41.386;2.082;2023-03-14T07:39:44;790.10;;;702.70;;
55933;SDS011;41839;41.386;2.082;2023-03-14T07:42:10;792.00;;;705.42;;
55933;SDS011;41839;41.386;2.082;2023-03-14T07:44:36;777.65;;;691.80;;
55933;SDS011;41839;41.386;2.082;2023-03-14T07:47:01;786.35;;;693.72;;
55933;SDS011;41839;41.386;2.082;2023-03-14T07:49:27;786.47;;;687.72;;
55933;SDS011;41839;41.386;2.082;2023-03-14T07:51:52;782.92;;;672.80;;
55933;SDS011;41839;41.386;2.082;2023-03-14T07:54:18;810.30;;;690.67;;
55933;SDS011;41839;41.386;2.082;2023-03-14T07:56:43;813.22;;;684.72;;
55933;SDS011;41839;41.386;2.082;2023-03-14T07:59:09;826.88;;;717.90;;
55933;SDS011;41839;41.386;2.082;2023-03-14T08:01:34;831.70;;;703.55;;
55933;SDS011;41839;41.386;2.082;2023-03-14T08:04:00;799.78;;;688.20;;
55933;SDS011;41839;41.386;2.082;2023-03-14T08:06:25;783.95;;;690.05;;
55933;SDS011;41839;41.386;2.082;2023-03-14T08:08:51;811.05;;;691.65;;
55933;SDS011;41839;41.386;2.082;2023-03-14T08:11:16;832.28;;;691.30;;
55933;SDS011;41839;41.386;2.082;2023-03-14T08:13:42;845.13;;;713.58;;
55933;SDS011;41839;41.386;2.082;2023-03-14T08:16:14;801.10;;;702.67;;
55933;SDS011;41839;41.386;2.082;2023-03-14T08:18:40;789.35;;;704.47;;
55933;SDS011;41839;41.386;2.082;2023-03-14T08:21:05;794.53;;;711.10;;
55933;SDS011;41839;41.386;2.082;2023-03-14T08:23:31;828.65;;;743.53;;
55933;SDS011;41839;41.386;2.082;2023-03-14T08:25:56;812.08;;;728.70;;
55933;SDS011;41839;41.386;2.082;2023-03-14T08:28:22;832.38;;;748.38;;
55933;SDS011;41839;41.386;2.082;2023-03-14T08:30:47;811.22;;;727.75;;
55933;SDS011;41839;41.386;2.082;2023-03-14T08:33:13;800.90;;;718.95;;
55933;SDS011;41839;41.386;2.082;2023-03-14T08:35:38;846.15;;;761.33;;
55933;SDS011;41839;41.386;2.082;2023-03-14T08:38:04;846.58;;;761.28;;
55933;SDS011;41839;41.386;2.082;2023-03-14T08:40:30;832.20;;;747.35;;
55933;SDS011;41839;41.386;2.082;2023-03-14T08:42:55;829.53;;;747.08;;
55933;SDS011;41839;41.386;2.082;2023-03-14T08:45:20;849.55;;;765.72;;
55933;SDS011;41839;41.386;2.082;2023-03-14T08:47:46;810.75;;;729.63;;
55933;SDS011;41839;41.386;2.082;2023-03-14T08:50:12;844.53;;;760.45;;
55933;SDS011;41839;41.386;2.082;2023-03-14T08:52:38;845.50;;;760.55;;
55933;SDS011;41839;41.386;2.082;2023-03-14T08:55:05;858.30;;;772.70;;
55933;SDS011;41839;41.386;2.082;2023-03-14T08:57:32;867.53;;;781.05;;
55933;SDS011;41839;41.386;2.082;2023-03-14T08:59:58;862.17;;;776.70;;
55933;SDS011;41839;41.386;2.082;2023-03-14T09:02:23;865.47;;;781.28;;
55933;SDS011;41839;41.386;2.082;2023-03-14T09:04:50;832.35;;;749.75;;
55933;SDS011;41839;41.386;2.082;2023-03-14T09:07:16;827.78;;;746.13;;
55933;SDS011;41839;41.386;2.082;2023-03-14T09:09:42;874.08;;;788.00;;
55933;SDS011;41839;41.386;2.082;2023-03-14T09:12:07;852.95;;;768.80;;
55933;SDS011;41839;41.386;2.082;2023-03-14T09:14:33;874.60;;;787.35;;
55933;SDS011;41839;41.386;2.082;2023-03-14T09:16:58;864.70;;;778.58;;
55933;SDS011;41839;41.386;2.082;2023-03-14T09:19:24;867.17;;;780.15;;
55933;SDS011;41839;41.386;2.082;2023-03-14T09:21:49;892.33;;;800.45;;
55933;SDS011;41839;41.386;2.082;2023-03-14T09:24:15;878.08;;;783.08;;
55933;SDS011;41839;41.386;2.082;2023-03-14T09:26:42;910.28;;;819.22;;
55933;SDS011;41839;41.386;2.082;2023-03-14T09:29:07;876.15;;;788.45;;
55933;SDS011;41839;41.386;2.082;2023-03-14T09:31:33;919.33;;;828.08;;
55933;SDS011;41839;41.386;2.082;2023-03-14T09:33:58;897.15;;;807.55;;
55933;SDS011;41839;41.386;2.082;2023-03-14T09:36:24;902.78;;;812.58;;
55933;SDS011;41839;41.386;2.082;2023-03-14T09:38:50;897.80;;;807.95;;
55933;SDS011;41839;41.386;2.082;2023-03-14T09:41:23;923.28;;;831.50;;
55933;SDS011;41839;41.386;2.082;2023-03-14T09:43:58;905.33;;;815.90;;
55933;SDS011;41839;41.386;2.082;2023-03-14T09:46:46;929.50;;;839.60;;
55933;SDS011;41839;41.386;2.082;2023-03-14T09:49:23;918.35;;;830.50;;
55933;SDS011;41839;41.386;2.082;2023-03-14T09:51:53;891.60;;;805.38;;
55933;SDS011;41839;41.386;2.082;2023-03-14T09:56:55;914.67;;;824.53;;
55933;SDS011;41839;41.386;2.082;2023-03-14T09:59:20;935.53;;;844.03;;
55933;SDS011;41839;41.386;2.082;2023-03-14T10:01:46;928.30;;;832.70;;
55933;SDS011;41839;41.386;2.082;2023-03-14T10:04:15;955.20;;;857.97;;
55933;SDS011;41839;41.386;2.082;2023-03-14T10:06:45;942.00;;;843.55;;
55933;SDS011;41839;41.386;2.082;2023-03-14T10:09:20;933.63;;;835.20;;
55933;SDS011;41839;41.386;2.082;2023-03-14T10:11:56;971.58;;;871.17;;
55933;SDS011;41839;41.386;2.082;2023-03-14T10:14:29;957.03;;;857.13;;
55933;SDS011;41839;41.386;2.082;2023-03-14T10:16:59;967.13;;;867.47;;
55933;SDS011;41839;41.386;2.082;2023-03-14T10:19:34;974.65;;;877.25;;
55933;SDS011;41839;41.386;2.082;2023-03-14T10:22:01;974.17;;;881.83;;
55933;SDS011;41839;41.386;2.082;2023-03-14T10:24:34;968.53;;;876.42;;
55933;SDS011;41839;41.386;2.082;2023-03-14T10:27:17;963.53;;;871.63;;
55933;SDS011;41839;41.386;2.082;2023-03-14T10:29:52;981.95;;;887.78;;
55933;SDS011;41839;41.386;2.082;2023-03-14T10:32:20;985.80;;;888.70;;
55933;SDS011;41839;41.386;2.082;2023-03-14T10:35:03;1020.42;;;919.15;;
55933;SDS011;41839;41.386;2.082;2023-03-14T10:37:53;992.63;;;895.30;;
55933;SDS011;41839;41.386;2.082;2023-03-14T10:40:22;1015.50;;;917.00;;
55933;SDS011;41839;41.386;2.082;2023-03-14T10:42:52;1022.53;;;922.30;;
55933;SDS011;41839;41.386;2.082;2023-03-14T10:45:33;1020.90;;;921.17;;
55933;SDS011;41839;41.386;2.082;2023-03-14T10:48:06;1009.88;;;914.95;;
55933;SDS011;41839;41.386;2.082;2023-03-14T10:55:24;1002.03;;;910.83;;
55933;SDS011;41839;41.386;2.082;2023-03-14T10:57:51;967.83;;;880.25;;
55933;SDS011;41839;41.386;2.082;2023-03-14T11:00:18;992.45;;;902.50;;
55933;SDS011;41839;41.386;2.082;2023-03-14T11:07:59;1006.42;;;916.78;;
55933;SDS011;41839;41.386;2.082;2023-03-14T11:10:32;983.20;;;892.85;;
55933;SDS011;41839;41.386;2.082;2023-03-14T11:25:32;1020.78;;;929.13;;
55933;SDS011;41839;41.386;2.082;2023-03-14T11:31:35;1030.97;;;938.78;;
55933;SDS011;41839;41.386;2.082;2023-03-14T11:38:49;1011.75;;;922.13;;
55933;SDS011;41839;41.386;2.082;2023-03-14T11:41:22;1006.50;;;917.00;;
55933;SDS011;41839;41.386;2.082;2023-03-14T11:44:18;996.75;;;908.30;;
55933;SDS011;41839;41.386;2.082;2023-03-14T11:50:24;993.08;;;907.28;;
55933;SDS011;41839;41.386;2.082;2023-03-14T11:53:42;979.13;;;898.42;;
55933;SDS011;41839;41.386;2.082;2023-03-14T11:55:47;992.42;;;911.05;;
55933;SDS011;41839;41.386;2.082;2023-03-14T12:01:57;968.88;;;886.88;;
55933;SDS011;41839;41.386;2.082;2023-03-14T12:07:06;991.22;;;906.95;;
55933;SDS011;41839;41.386;2.082;2023-03-14T12:09:44;991.78;;;907.20;;
55933;SDS011;41839;41.386;2.082;2023-03-14T12:12:58;979.22;;;896.97;;
55933;SDS011;41839;41.386;2.082;2023-03-14T12:15:24;974.88;;;893.33;;
55933;SDS011;41839;41.386;2.082;2023-03-14T12:17:55;997.05;;;913.78;;
55933;SDS011;41839;41.386;2.082;2023-03-14T12:20:22;983.70;;;901.33;;
55933;SDS011;41839;41.386;2.082;2023-03-14T12:27:46;977.38;;;896.13;;
55933;SDS011;41839;41.386;2.082;2023-03-14T12:30:38;961.42;;;882.00;;
55933;SDS011;41839;41.386;2.082;2023-03-14T12:35:40;976.28;;;896.83;;
55933;SDS011;41839;41.386;2.082;2023-03-14T12:38:10;985.13;;;905.17;;
55933;SDS011;41839;41.386;2.082;2023-03-14T12:46:54;996.28;;;913.55;;
55933;SDS011;41839;41.386;2.082;2023-03-14T12:50:07;970.72;;;888.58;;
55933;SDS011;41839;41.386;2.082;2023-03-14T12:52:43;963.42;;;882.28;;
55933;SDS011;41839;41.386;2.082;2023-03-14T12:56:15;971.25;;;889.13;;
55933;SDS011;41839;41.386;2.082;2023-03-14T12:59:10;962.72;;;881.10;;
55933;SDS011;41839;41.386;2.082;2023-03-14T13:02:48;971.45;;;889.35;;
55933;SDS011;41839;41.386;2.082;2023-03-14T13:05:19;992.25;;;908.50;;
55933;SDS011;41839;41.386;2.082;2023-03-14T13:10:28;978.08;;;896.30;;
55933;SDS011;41839;41.386;2.082;2023-03-14T13:12:56;980.63;;;898.47;;
55933;SDS011;41839;41.386;2.082;2023-03-14T13:16:53;970.38;;;888.70;;
55933;SDS011;41839;41.386;2.082;2023-03-14T13:19:20;966.45;;;885.30;;
55933;SDS011;41839;41.386;2.082;2023-03-14T13:24:33;970.20;;;885.88;;
55933;SDS011;41839;41.386;2.082;2023-03-14T13:26:49;1002.53;;;917.90;;
55933;SDS011;41839;41.386;2.082;2023-03-14T13:32:39;963.55;;;878.42;;
55933;SDS011;41839;41.386;2.082;2023-03-14T13:35:14;958.50;;;873.90;;
55933;SDS011;41839;41.386;2.082;2023-03-14T13:38:54;974.17;;;887.83;;
55933;SDS011;41839;41.386;2.082;2023-03-14T13:41:22;965.65;;;881.35;;
55933;SDS011;41839;41.386;2.082;2023-03-14T13:44:13;959.92;;;878.00;;
55933;SDS011;41839;41.386;2.082;2023-03-14T13:46:41;991.45;;;905.97;;
55933;SDS011;41839;41.386;2.082;2023-03-14T13:49:11;967.55;;;883.17;;
55933;SDS011;41839;41.386;2.082;2023-03-14T13:51:43;981.45;;;895.70;;
55933;SDS011;41839;41.386;2.082;2023-03-14T13:54:16;959.42;;;875.63;;
55933;SDS011;41839;41.386;2.082;2023-03-14T13:57:49;970.90;;;884.55;;
55933;SDS011;41839;41.386;2.082;2023-03-14T14:00:26;978.22;;;891.30;;
55933;SDS011;41839;41.386;2.082;2023-03-14T14:02:53;993.22;;;903.15;;
55933;SDS011;41839;41.386;2.082;2023-03-14T14:05:20;966.10;;;875.95;;
55933;SDS011;41839;41.386;2.082;2023-03-14T14:07:46;1000.37;;;907.60;;
55933;SDS011;41839;41.386;2.082;2023-03-14T14:13:11;977.67;;;882.60;;
55933;SDS011;41839;41.386;2.082;2023-03-14T14:15:43;978.38;;;889.25;;
55933;SDS011;41839;41.386;2.082;2023-03-14T14:18:12;963.10;;;877.67;;
55933;SDS011;41839;41.386;2.082;2023-03-14T14:20:43;958.97;;;872.30;;
55933;SDS011;41839;41.386;2.082;2023-03-14T14:23:11;990.92;;;900.88;;
55933;SDS011;41839;41.386;2.082;2023-03-14T14:25:39;970.70;;;882.28;;
55933;SDS011;41839;41.386;2.082;2023-03-14T14:28:18;978.80;;;889.15;;
55933;SDS011;41839;41.386;2.082;2023-03-14T14:30:46;980.00;;;888.08;;
55933;SDS011;41839;41.386;2.082;2023-03-14T14:33:24;988.35;;;894.20;;
55933;SDS011;41839;41.386;2.082;2023-03-14T14:35:51;986.58;;;896.90;;
55933;SDS011;41839;41.386;2.082;2023-03-14T14:38:21;976.80;;;886.85;;
55933;SDS011;41839;41.386;2.082;2023-03-14T14:40:51;973.25;;;887.08;;
55933;SDS011;41839;41.386;2.082;2023-03-14T14:45:53;970.20;;;882.25;;
55933;SDS011;41839;41.386;2.082;2023-03-14T14:53:02;965.60;;;878.08;;
55933;SDS011;41839;41.386;2.082;2023-03-14T14:55:44;955.17;;;871.17;;
55933;SDS011;41839;41.386;2.082;2023-03-14T14:58:29;956.80;;;872.53;;
55933;SDS011;41839;41.386;2.082;2023-03-14T15:01:41;966.90;;;881.70;;
55933;SDS011;41839;41.386;2.082;2023-03-14T15:03:51;956.70;;;872.22;;
55933;SDS011;41839;41.386;2.082;2023-03-14T15:06:19;978.13;;;893.15;;
55933;SDS011;41839;41.386;2.082;2023-03-14T15:09:37;942.30;;;857.72;;
55933;SDS011;41839;41.386;2.082;2023-03-14T15:12:02;972.53;;;889.38;;
55933;SDS011;41839;41.386;2.082;2023-03-14T15:14:28;966.05;;;880.50;;
55933;SDS011;41839;41.386;2.082;2023-03-14T15:16:53;963.13;;;877.03;;
55933;SDS011;41839;41.386;2.082;2023-03-14T15:21:20;964.38;;;880.92;;
55933;SDS011;41839;41.386;2.082;2023-03-14T15:23:45;924.10;;;845.33;;
55933;SDS011;41839;41.386;2.082;2023-03-14T15:26:15;952.75;;;870.67;;
55933;SDS011;41839;41.386;2.082;2023-03-14T15:28:43;958.60;;;876.78;;
55933;SDS011;41839;41.386;2.082;2023-03-14T15:31:11;955.03;;;874.65;;
55933;SDS011;41839;41.386;2.082;2023-03-14T15:33:36;966.55;;;884.90;;
55933;SDS011;41839;41.386;2.082;2023-03-14T15:36:03;972.25;;;889.63;;
55933;SDS011;41839;41.386;2.082;2023-03-14T15:38:29;979.85;;;896.45;;
55933;SDS011;41839;41.386;2.082;2023-03-14T15:40:54;963.70;;;880.53;;
55933;SDS011;41839;41.386;2.082;2023-03-14T15:43:20;981.20;;;897.08;;
55933;SDS011;41839;41.386;2.082;2023-03-14T15:45:45;953.22;;;871.60;;
55933;SDS011;41839;41.386;2.082;2023-03-14T15:48:15;942.42;;;858.58;;
55933;SDS011;41839;41.386;2.082;2023-03-14T15:50:42;976.90;;;885.92;;